Time;durP1;ratioP1;P1;durP2;ratioP2;P2;SDS_P1;SDS_P2;PMS_P1;PMS_P2;Temp;Humidity;BMP_temperature;BMP_pressure;BME280_temperature;BME280_humidity;BME280_pressure;Samples;Min_cycle;Max_cycle;Signal;HPM_P1;HPM_P2
2022/11/01 00:01:14;;;;;;;32.83;18.08;;;;;;;9.56;76.36;98774.84;5067298;28;20032;-78
2022/11/01 00:03:39;;;;;;;30.65;16.55;;;;;;;9.59;77.22;98770.72;5068469;28;20083;-77
2022/11/01 00:06:05;;;;;;;32.65;17.90;;;;;;;9.61;76.99;98771.25;5064021;28;20099;-78
2022/11/01 00:08:30;;;;;;;28.63;15.95;;;;;;;9.67;76.61;98767.41;5070471;28;20510;-78
2022/11/01 00:11:08;;;;;;;31.85;16.35;;;;;;;9.71;76.78;98760.25;5089118;28;20036;-78
2022/11/01 00:13:34;;;;;;;26.77;14.65;;;;;;;9.77;76.45;98753.66;5074832;28;20369;-78
2022/11/01 00:16:00;;;;;;;29.52;16.58;;;;;;;9.85;76.95;98744.00;5081084;28;20029;-77
2022/11/01 00:18:26;;;;;;;27.70;15.45;;;;;;;9.90;77.32;98740.44;5066519;28;20488;-77
2022/11/01 00:20:51;;;;;;;29.17;17.25;;;;;;;9.93;77.01;98739.84;5048272;28;20020;-77
2022/11/01 00:23:16;;;;;;;29.38;17.10;;;;;;;9.96;76.54;98739.28;5072021;28;20493;-77
2022/11/01 00:25:42;;;;;;;29.48;16.23;;;;;;;10.00;77.19;98737.59;5069338;28;20103;-76
2022/11/01 00:28:07;;;;;;;27.55;15.50;;;;;;;10.04;76.82;98744.13;5061195;28;20115;-76
2022/11/01 00:30:36;;;;;;;26.55;14.85;;;;;;;10.08;77.28;98747.16;5064053;28;20021;-76
2022/11/01 00:33:01;;;;;;;28.52;16.00;;;;;;;10.10;77.02;98739.47;5065692;28;20075;-77
2022/11/01 00:35:27;;;;;;;26.38;14.82;;;;;;;10.13;76.99;98742.44;5068348;28;20107;-78
2022/11/01 00:37:52;;;;;;;25.73;14.90;;;;;;;10.19;77.00;98739.66;5076294;28;20039;-76
2022/11/01 00:40:17;;;;;;;24.20;14.43;;;;;;;10.20;78.05;98744.84;5071631;28;20486;-75
2022/11/01 00:42:43;;;;;;;25.80;14.15;;;;;;;10.19;77.39;98745.13;5069394;28;20029;-78
2022/11/01 00:45:09;;;;;;;26.08;14.50;;;;;;;10.18;77.28;98748.97;5073587;28;20055;-80
2022/11/01 00:47:34;;;;;;;25.13;13.80;;;;;;;10.22;78.27;98739.09;5057606;28;20017;-79
2022/11/01 00:49:59;;;;;;;25.17;14.30;;;;;;;10.23;77.78;98730.56;5069673;28;20493;-77
2022/11/01 00:52:25;;;;;;;26.80;14.50;;;;;;;10.30;77.37;98735.72;5064511;28;20028;-77
2022/11/01 00:54:50;;;;;;;25.02;15.30;;;;;;;10.33;77.13;98737.06;5063706;28;20033;-77
2022/11/01 00:57:15;;;;;;;27.92;14.65;;;;;;;10.36;77.80;98739.22;5073932;28;20068;-76
2022/11/01 00:59:41;;;;;;;29.60;16.00;;;;;;;10.35;77.79;98735.69;5084613;28;20024;-77
2022/11/01 01:02:06;;;;;;;25.65;16.05;;;;;;;10.36;77.89;98725.53;5063724;28;20029;-76
2022/11/01 01:04:32;;;;;;;27.77;16.05;;;;;;;10.37;77.91;98728.00;5076732;28;20024;-77
2022/11/01 01:06:57;;;;;;;25.17;15.07;;;;;;;10.40;78.04;98721.94;5076205;28;20028;-77
2022/11/01 01:09:22;;;;;;;28.88;15.45;;;;;;;10.45;78.81;98712.03;5075955;28;20031;-78
2022/11/01 01:11:48;;;;;;;27.17;15.52;;;;;;;10.47;77.72;98707.91;5079656;28;20032;-78
2022/11/01 01:14:13;;;;;;;25.13;14.95;;;;;;;10.50;78.22;98707.34;5074267;28;20107;-77
2022/11/01 01:16:38;;;;;;;27.55;16.40;;;;;;;10.51;78.83;98711.72;5073201;28;20391;-78
2022/11/01 01:19:04;;;;;;;26.17;16.35;;;;;;;10.51;78.48;98705.38;5074179;28;20016;-78
2022/11/01 01:21:29;;;;;;;27.20;15.70;;;;;;;10.51;79.08;98703.47;5072278;28;20020;-78
2022/11/01 01:23:54;;;;;;;26.65;15.25;;;;;;;10.51;79.45;98708.13;5083678;28;20144;-78
2022/11/01 01:26:20;;;;;;;23.33;15.40;;;;;;;10.51;78.74;98702.66;5075218;28;20078;-77
2022/11/01 01:28:45;;;;;;;25.02;16.15;;;;;;;10.51;79.47;98698.00;5074107;28;20025;-78
2022/11/01 01:31:12;;;;;;;25.20;15.75;;;;;;;10.52;79.04;98702.38;5074027;28;20016;-78
2022/11/01 01:33:37;;;;;;;24.55;15.13;;;;;;;10.56;78.73;98700.69;5074338;28;20522;-78
2022/11/01 01:36:05;;;;;;;24.33;15.65;;;;;;;10.62;78.75;98701.44;5075132;28;20066;-77
2022/11/01 01:38:30;;;;;;;24.48;16.02;;;;;;;10.65;79.57;98708.25;5071915;28;20081;-78
2022/11/01 01:41:54;;;;;;;23.88;16.15;;;;;;;10.64;79.73;98701.97;5067077;28;20036;-78
2022/11/01 01:43:44;;;;;;;26.67;16.95;;;;;;;10.64;78.70;98698.41;5066872;28;20032;-78
2022/11/01 01:46:10;;;;;;;26.95;16.85;;;;;;;10.65;79.91;98695.38;5075100;28;20033;-78
2022/11/01 01:48:38;;;;;;;25.95;16.80;;;;;;;10.64;78.94;98687.44;5075236;28;20081;-78
2022/11/01 01:51:08;;;;;;;26.80;17.00;;;;;;;10.66;78.91;98688.78;5055409;28;20482;-78
2022/11/01 01:53:46;;;;;;;30.58;18.42;;;;;;;10.65;79.54;98681.66;5073486;28;20052;-79
2022/11/01 01:56:19;;;;;;;24.88;16.90;;;;;;;10.67;79.70;98679.44;5073826;28;20031;-78
2022/11/01 01:58:58;;;;;;;25.55;16.42;;;;;;;10.71;79.20;98679.66;5068217;28;20107;-77
2022/11/01 02:01:25;;;;;;;25.50;17.05;;;;;;;10.69;79.29;98681.88;5063308;28;20028;-78
2022/11/01 02:03:50;;;;;;;24.55;15.55;;;;;;;10.74;79.42;98678.28;5070426;28;20103;-79
2022/11/01 02:06:19;;;;;;;22.63;14.65;;;;;;;10.72;78.87;98675.81;5070695;28;20135;-79
2022/11/01 02:08:48;;;;;;;22.67;14.20;;;;;;;10.75;79.08;98685.41;5071119;28;20028;-79
2022/11/01 02:11:16;;;;;;;19.95;13.70;;;;;;;10.76;79.05;98684.31;5090331;28;20111;-79
2022/11/01 02:13:41;;;;;;;21.70;13.65;;;;;;;10.70;79.37;98684.34;5065976;28;20020;-78
2022/11/01 02:16:38;;;;;;;21.15;13.73;;;;;;;10.65;79.18;98678.09;5052758;28;20024;-78
2022/11/01 02:19:40;;;;;;;20.95;13.43;;;;;;;10.57;79.72;98679.56;5070158;28;20051;-79
2022/11/01 02:22:18;;;;;;;21.00;13.10;;;;;;;10.48;79.65;98676.63;5079660;28;20107;-78
2022/11/01 02:25:00;;;;;;;20.58;12.85;;;;;;;10.42;78.97;98667.63;5090757;28;20032;-78
2022/11/01 02:27:44;;;;;;;18.90;12.57;;;;;;;10.41;79.96;98679.69;5072997;28;20032;-79
2022/11/01 02:30:19;;;;;;;19.63;13.10;;;;;;;10.40;79.53;98671.78;5076751;28;20028;-79
2022/11/01 02:33:06;;;;;;;17.42;12.23;;;;;;;10.37;79.04;98675.06;5091205;28;20131;-78
2022/11/01 02:35:39;;;;;;;18.83;11.93;;;;;;;10.34;78.96;98681.97;5080966;28;20039;-77
2022/11/01 02:38:20;;;;;;;19.42;12.23;;;;;;;10.37;78.74;98675.06;5091038;28;20385;-77
2022/11/01 02:40:53;;;;;;;18.05;12.18;;;;;;;10.38;79.30;98673.97;5091173;28;20024;-78
2022/11/01 02:43:26;;;;;;;19.25;12.68;;;;;;;10.39;79.20;98670.94;5091020;28;20097;-77
2022/11/01 02:45:51;;;;;;;22.10;13.05;;;;;;;10.39;78.88;98661.91;5070768;28;20397;-78
2022/11/01 02:48:19;;;;;;;17.60;11.60;;;;;;;10.40;78.77;98658.06;5053036;28;20028;-77
2022/11/01 02:50:52;;;;;;;20.33;11.43;;;;;;;10.40;78.48;98660.81;5071032;28;20032;-77
2022/11/01 02:53:18;;;;;;;16.80;11.10;;;;;;;10.40;79.07;98669.03;5084553;28;20024;-77
2022/11/01 02:55:43;;;;;;;16.13;11.02;;;;;;;10.39;78.64;98659.19;5091222;28;20065;-77
2022/11/01 02:58:18;;;;;;;15.60;11.00;;;;;;;10.38;78.16;98660.25;5090602;28;20040;-77
2022/11/01 03:00:44;;;;;;;15.50;9.95;;;;;;;10.39;78.87;98670.94;5091031;28;20766;-77
2022/11/01 03:03:19;;;;;;;15.50;10.18;;;;;;;10.38;78.56;98671.22;5090973;28;20024;-77
2022/11/01 03:05:56;;;;;;;14.80;9.77;;;;;;;10.39;79.20;98678.38;5090825;28;20080;-78
2022/11/01 03:08:27;;;;;;;16.02;9.85;;;;;;;10.36;77.98;98679.75;5067236;28;20028;-78
2022/11/01 03:11:02;;;;;;;14.75;8.98;;;;;;;10.32;78.68;98678.69;5068844;28;20521;-79
2022/11/01 03:13:46;;;;;;;15.18;9.68;;;;;;;10.28;78.36;98669.41;5063517;28;20079;-78
2022/11/01 03:16:33;;;;;;;12.30;8.23;;;;;;;10.26;78.59;98677.91;5083215;28;20106;-79
2022/11/01 03:19:21;;;;;;;13.20;8.13;;;;;;;10.27;77.87;98674.06;5069596;28;20036;-78
2022/11/01 03:21:59;;;;;;;16.02;8.50;;;;;;;10.25;78.42;98675.47;5057852;28;20044;-79
2022/11/01 03:24:34;;;;;;;12.02;8.80;;;;;;;10.21;78.18;98666.19;5055951;28;20474;-79
2022/11/01 03:27:05;;;;;;;13.05;8.55;;;;;;;10.18;78.14;98664.00;5073599;28;20077;-79
2022/11/01 03:29:35;;;;;;;15.93;9.02;;;;;;;10.13;78.21;98662.16;5088101;28;20109;-79
2022/11/01 03:32:02;;;;;;;12.98;8.57;;;;;;;10.13;78.02;98660.22;5079061;28;20035;-78
2022/11/01 03:34:30;;;;;;;15.10;8.90;;;;;;;10.10;78.43;98662.72;5076657;28;20074;-78
2022/11/01 03:37:01;;;;;;;15.80;9.20;;;;;;;10.11;77.81;98664.34;5093722;28;20020;-79
2022/11/01 03:39:32;;;;;;;13.60;8.93;;;;;;;10.09;78.19;98655.59;5092870;28;20478;-79
2022/11/01 03:42:03;;;;;;;14.48;9.23;;;;;;;10.11;78.74;98669.84;5093945;28;20020;-79
2022/11/01 03:44:42;;;;;;;12.23;8.50;;;;;;;10.15;78.50;98665.41;5093068;28;20063;-78
2022/11/01 03:47:08;;;;;;;11.73;8.17;;;;;;;10.22;77.84;98665.06;5093350;28;20053;-79
2022/11/01 03:49:34;;;;;;;12.40;8.23;;;;;;;10.27;78.60;98662.28;5078524;28;20035;-79
2022/11/01 03:51:59;;;;;;;15.48;8.38;;;;;;;10.33;78.43;98654.81;5072752;28;20020;-79
2022/11/01 03:54:26;;;;;;;11.48;7.68;;;;;;;10.38;78.09;98657.50;5072627;28;20029;-79
2022/11/01 03:56:51;;;;;;;13.75;8.60;;;;;;;10.40;78.60;98652.59;5084079;28;20054;-79
2022/11/01 03:59:17;;;;;;;15.82;8.60;;;;;;;10.42;78.08;98655.84;5092299;28;20032;-78
2022/11/01 04:01:42;;;;;;;12.95;8.38;;;;;;;10.45;78.16;98648.97;5093735;28;20097;-78
2022/11/01 04:04:08;;;;;;;12.50;7.68;;;;;;;10.48;78.29;98649.22;5072033;28;20025;-79
2022/11/01 04:06:33;;;;;;;14.05;8.23;;;;;;;10.47;78.70;98644.84;5093805;28;20420;-79
2022/11/01 04:08:59;;;;;;;15.25;8.82;;;;;;;10.46;78.68;98645.13;5092899;28;20047;-78
2022/11/01 04:11:24;;;;;;;12.88;7.45;;;;;;;10.47;78.90;98638.53;5093655;28;20374;-79
2022/11/01 04:13:49;;;;;;;12.13;7.22;;;;;;;10.46;78.46;98634.97;5092859;28;20058;-79
2022/11/01 04:21:43;;;;;;;11.32;6.97;;;;;;;10.46;78.46;98632.22;5073396;28;20102;-79
2022/11/01 04:24:08;;;;;;;12.10;7.30;;;;;;;10.45;78.65;98633.34;5072887;28;20029;-79
2022/11/01 04:26:34;;;;;;;13.43;7.95;;;;;;;10.42;78.77;98629.25;5073190;28;20466;-80
2022/11/01 04:29:00;;;;;;;12.30;7.75;;;;;;;10.43;78.96;98624.59;5084016;28;20028;-79
2022/11/01 04:31:27;;;;;;;16.90;10.73;;;;;;;10.44;78.77;98618.00;5093241;28;20028;-79
2022/11/01 04:33:54;;;;;;;13.20;8.05;;;;;;;10.47;79.18;98611.94;5092742;28;20052;-79
2022/11/01 04:36:20;;;;;;;11.55;7.55;;;;;;;10.50;79.02;98613.25;5093373;28;20035;-79
2022/11/01 04:38:56;;;;;;;12.50;7.70;;;;;;;10.48;78.61;98613.56;5093321;28;20029;-79
2022/11/01 04:41:27;;;;;;;12.77;7.55;;;;;;;10.46;78.84;98612.22;5076382;28;20028;-80
2022/11/01 04:43:54;;;;;;;15.18;8.40;;;;;;;10.46;78.48;98607.56;5085170;28;20080;-79
2022/11/01 04:46:20;;;;;;;13.88;9.13;;;;;;;10.49;78.76;98612.47;5076478;28;20070;-79
2022/11/01 04:48:46;;;;;;;11.98;7.13;;;;;;;10.49;78.76;98617.13;5072451;28;20021;-78
2022/11/01 04:51:12;;;;;;;11.75;7.53;;;;;;;10.50;78.56;98621.50;5073021;28;20493;-78
2022/11/01 04:53:37;;;;;;;14.18;8.10;;;;;;;10.49;78.45;98619.84;5091108;28;20104;-77
2022/11/01 04:56:05;;;;;;;12.02;7.47;;;;;;;10.47;78.46;98608.34;5091253;28;20114;-77
2022/11/01 04:58:32;;;;;;;13.05;7.45;;;;;;;10.43;78.54;98617.16;5091345;28;20119;-76
2022/11/01 05:00:57;;;;;;;11.82;6.90;;;;;;;10.42;78.42;98615.53;5091659;28;20035;-77
2022/11/01 05:03:22;;;;;;;12.75;6.95;;;;;;;10.42;78.17;98610.03;5091043;28;20114;-78
2022/11/01 05:05:48;;;;;;;12.35;7.65;;;;;;;10.39;78.59;98607.09;5080933;28;20052;-78
2022/11/01 05:08:13;;;;;;;10.45;7.30;;;;;;;10.36;78.44;98604.91;5072086;28;20497;-78
2022/11/01 05:10:42;;;;;;;14.70;8.00;;;;;;;10.34;78.03;98605.19;5072442;28;20104;-77
2022/11/01 05:13:12;;;;;;;12.32;7.53;;;;;;;10.32;78.87;98609.31;5086333;28;20486;-78
2022/11/01 05:15:37;;;;;;;11.50;7.03;;;;;;;10.27;78.46;98601.97;5092230;28;20040;-77
2022/11/01 05:18:03;;;;;;;12.13;7.28;;;;;;;10.26;79.22;98594.88;5084353;28;20122;-77
2022/11/01 05:20:29;;;;;;;10.40;6.45;;;;;;;10.27;78.60;98594.56;5092661;28;20023;-77
2022/11/01 05:23:03;;;;;;;11.27;6.72;;;;;;;10.28;78.66;98601.69;5062683;28;20703;-78
2022/11/01 05:25:29;;;;;;;11.25;7.03;;;;;;;10.26;79.67;98601.16;5072188;28;20020;-78
2022/11/01 05:27:59;;;;;;;9.90;6.28;;;;;;;10.24;78.91;98599.81;5056352;28;20020;-77
2022/11/01 05:30:24;;;;;;;11.43;6.40;;;;;;;10.24;79.28;98591.59;5092416;28;20107;-77
2022/11/01 05:32:56;;;;;;;10.73;6.78;;;;;;;10.21;79.29;98583.94;5092067;28;20072;-77
2022/11/01 05:35:21;;;;;;;11.70;6.65;;;;;;;10.19;79.09;98592.44;5082195;28;20024;-77
2022/11/01 05:37:46;;;;;;;11.77;6.72;;;;;;;10.21;79.56;98592.97;5070860;28;20036;-77
2022/11/01 05:40:12;;;;;;;10.32;6.55;;;;;;;10.24;80.08;98591.59;5071278;28;20104;-77
2022/11/01 05:42:38;;;;;;;9.77;6.30;;;;;;;10.24;79.14;98586.13;5070751;28;20445;-77
2022/11/01 05:45:04;;;;;;;9.05;5.93;;;;;;;10.26;79.66;98590.19;5052978;28;20150;-77
2022/11/01 05:47:31;;;;;;;9.00;6.32;;;;;;;10.28;79.63;98593.44;5070912;28;20037;-77
2022/11/01 05:49:57;;;;;;;10.85;5.95;;;;;;;10.32;79.50;98584.66;5071830;28;20044;-78
2022/11/01 05:52:22;;;;;;;12.40;6.57;;;;;;;10.32;79.56;98588.22;5088414;28;20093;-77
2022/11/01 05:54:47;;;;;;;11.70;6.38;;;;;;;10.35;79.66;98593.13;5073742;28;20028;-77
2022/11/01 05:57:13;;;;;;;10.13;6.45;;;;;;;10.40;79.60;98601.28;5072984;28;20027;-78
2022/11/01 05:59:38;;;;;;;10.07;5.78;;;;;;;10.42;79.89;98598.28;5091909;28;20032;-77
2022/11/01 06:02:03;;;;;;;12.70;6.10;;;;;;;10.44;80.45;98590.59;5073613;28;20028;-77
2022/11/01 06:04:29;;;;;;;9.68;6.03;;;;;;;10.44;80.08;98587.84;5091421;28;20051;-77
2022/11/01 06:06:54;;;;;;;10.02;6.40;;;;;;;10.47;79.45;98594.66;5065059;28;20036;-77
2022/11/01 06:09:20;;;;;;;9.85;6.85;;;;;;;10.47;80.00;98589.16;5071178;28;20072;-77
2022/11/01 06:11:45;;;;;;;9.98;5.85;;;;;;;10.49;79.74;98582.28;5053407;28;20032;-77
2022/11/01 06:14:10;;;;;;;10.30;6.03;;;;;;;10.52;79.89;98587.19;5071436;28;20450;-77
2022/11/01 06:16:36;;;;;;;10.10;4.82;;;;;;;10.57;80.38;98594.53;5071660;28;20112;-77
2022/11/01 06:19:01;;;;;;;8.00;5.40;;;;;;;10.58;79.79;98598.91;5070928;28;20440;-77
2022/11/01 06:21:27;;;;;;;9.40;5.05;;;;;;;10.60;79.73;98598.63;5071362;28;20043;-77
2022/11/01 06:23:52;;;;;;;11.63;5.60;;;;;;;10.62;79.72;98596.38;5071061;28;20466;-77
2022/11/01 06:26:18;;;;;;;10.60;5.75;;;;;;;10.66;79.13;98598.28;5071396;28;20455;-77
2022/11/01 06:28:44;;;;;;;9.40;5.88;;;;;;;10.70;79.70;98604.81;5071688;28;20032;-77
2022/11/01 06:31:11;;;;;;;12.13;5.50;;;;;;;10.72;79.77;98604.50;5091526;28;20545;-77
2022/11/01 06:33:36;;;;;;;10.13;5.72;;;;;;;10.75;79.56;98611.34;5085780;28;20560;-77
2022/11/01 06:36:02;;;;;;;11.77;5.55;;;;;;;10.79;79.04;98609.66;5070925;28;20032;-78
2022/11/01 06:38:27;;;;;;;9.18;5.25;;;;;;;10.80;79.31;98603.84;5071418;28;20062;-77
2022/11/01 06:40:53;;;;;;;8.48;4.95;;;;;;;10.81;79.15;98613.72;5071319;28;20040;-77
2022/11/01 06:43:18;;;;;;;9.95;5.50;;;;;;;10.85;79.05;98609.28;5071231;28;20107;-77
2022/11/01 06:45:44;;;;;;;8.00;5.07;;;;;;;10.88;78.86;98610.59;5070673;28;20137;-77
2022/11/01 06:48:09;;;;;;;10.63;5.15;;;;;;;10.91;79.11;98604.53;5072068;28;20032;-77
2022/11/01 06:50:34;;;;;;;8.70;5.70;;;;;;;10.94;78.76;98597.66;5091207;28;20073;-77
2022/11/01 06:53:00;;;;;;;9.73;5.43;;;;;;;10.98;78.92;98606.94;5091343;28;20088;-77
2022/11/01 06:55:27;;;;;;;10.73;5.20;;;;;;;11.02;78.62;98606.03;5090751;28;20105;-77
2022/11/01 06:57:54;;;;;;;8.57;4.90;;;;;;;11.08;79.43;98598.53;5094943;28;20043;-77
2022/11/01 07:00:21;;;;;;;9.07;5.30;;;;;;;11.11;79.07;98608.91;5095351;28;20032;-77
2022/11/01 07:02:46;;;;;;;12.82;5.53;;;;;;;11.17;79.11;98606.94;5095236;28;20428;-78
2022/11/01 07:05:11;;;;;;;11.18;5.65;;;;;;;11.22;78.57;98603.28;5084807;28;20028;-77
2022/11/01 07:07:37;;;;;;;8.13;5.13;;;;;;;11.28;78.49;98602.91;5060688;28;20071;-77
2022/11/01 07:10:03;;;;;;;11.60;5.50;;;;;;;11.35;78.57;98596.22;5074646;28;20025;-78
2022/11/01 07:12:28;;;;;;;10.07;6.25;;;;;;;11.36;78.77;98597.88;5075479;28;20028;-78
2022/11/01 07:14:53;;;;;;;10.05;5.53;;;;;;;11.41;78.55;98595.84;5074736;28;20111;-78
2022/11/01 07:17:19;;;;;;;11.18;5.47;;;;;;;11.43;78.39;98604.59;5085407;28;20036;-77
2022/11/01 07:19:44;;;;;;;11.75;6.15;;;;;;;11.45;78.33;98596.88;5095150;28;20523;-78
2022/11/01 07:22:10;;;;;;;9.75;6.07;;;;;;;11.51;78.39;98614.13;5079655;28;20025;-78
2022/11/01 07:24:35;;;;;;;9.15;5.65;;;;;;;11.53;78.19;98609.13;5088072;28;20466;-78
2022/11/01 07:27:00;;;;;;;12.00;5.93;;;;;;;11.56;78.11;98614.03;5064465;28;20085;-77
2022/11/01 07:29:26;;;;;;;9.05;5.50;;;;;;;11.56;77.65;98611.28;5076908;28;20120;-77
2022/11/01 07:31:51;;;;;;;9.32;5.72;;;;;;;11.59;77.98;98596.97;5074600;28;20033;-78
2022/11/01 07:34:16;;;;;;;8.63;4.78;;;;;;;11.63;77.74;98602.66;5074528;28;20079;-77
2022/11/01 07:36:42;;;;;;;10.40;5.57;;;;;;;11.64;77.12;98612.53;5056412;28;20025;-78
2022/11/01 07:39:07;;;;;;;10.13;5.70;;;;;;;11.64;77.63;98604.28;5074542;28;20024;-77
2022/11/01 07:41:32;;;;;;;9.60;6.10;;;;;;;11.69;76.90;98608.88;5074383;28;20150;-78
2022/11/01 07:43:58;;;;;;;10.77;5.40;;;;;;;11.69;76.97;98603.38;5056542;28;20021;-78
2022/11/01 07:46:23;;;;;;;9.48;5.57;;;;;;;11.72;77.62;98611.84;5074585;28;20035;-78
2022/11/01 07:48:50;;;;;;;12.60;5.65;;;;;;;11.77;77.20;98609.03;5080326;28;20041;-78
2022/11/01 07:51:16;;;;;;;12.40;6.35;;;;;;;11.82;77.35;98607.31;5074827;28;20047;-78
2022/11/01 07:53:41;;;;;;;8.48;5.75;;;;;;;11.87;76.92;98627.28;5083627;28;20498;-78
2022/11/01 07:56:07;;;;;;;10.18;5.72;;;;;;;11.91;77.31;98613.72;5091213;28;20035;-78
2022/11/01 07:58:32;;;;;;;12.15;6.13;;;;;;;11.95;76.76;98619.47;5084037;28;20646;-78
2022/11/01 08:00:59;;;;;;;13.40;5.85;;;;;;;11.96;76.84;98632.09;5086233;28;20462;-78
2022/11/01 08:03:24;;;;;;;12.70;5.80;;;;;;;11.97;76.35;98629.03;5094293;28;20024;-78
2022/11/01 08:05:50;;;;;;;10.20;5.25;;;;;;;11.96;76.41;98638.38;5093654;28;20073;-79
2022/11/01 08:08:15;;;;;;;11.05;6.03;;;;;;;11.99;76.06;98625.97;5082527;28;20074;-79
2022/11/01 08:10:41;;;;;;;11.38;6.18;;;;;;;12.00;76.03;98631.19;5074471;28;20149;-77
2022/11/01 08:13:16;;;;;;;9.15;6.00;;;;;;;12.03;75.60;98619.59;5074120;28;20474;-76
2022/11/01 08:15:41;;;;;;;13.95;7.10;;;;;;;12.05;76.18;98625.63;5080592;28;20057;-78
2022/11/01 08:18:07;;;;;;;10.85;7.45;;;;;;;12.10;75.82;98634.88;5086580;28;20495;-78
2022/11/01 08:20:32;;;;;;;13.20;6.75;;;;;;;12.11;76.00;98640.06;5074064;28;20451;-77
2022/11/01 08:22:58;;;;;;;13.45;7.25;;;;;;;12.11;75.52;98645.56;5073794;28;20111;-78
2022/11/01 08:25:24;;;;;;;13.35;7.57;;;;;;;12.06;75.98;98643.75;5081386;28;20035;-78
2022/11/01 08:27:49;;;;;;;13.43;7.15;;;;;;;12.10;75.71;98648.63;5070925;28;20398;-79
2022/11/01 08:30:16;;;;;;;11.85;6.20;;;;;;;12.13;75.49;98643.34;5073717;28;20054;-78
2022/11/01 08:32:42;;;;;;;14.73;7.30;;;;;;;12.16;75.71;98640.00;5073547;28;20068;-78
2022/11/01 08:35:08;;;;;;;11.23;6.35;;;;;;;12.19;75.87;98625.63;5073324;28;20536;-79
2022/11/01 08:37:33;;;;;;;12.18;7.43;;;;;;;12.23;75.30;98631.34;5072587;28;20524;-78
2022/11/01 08:39:58;;;;;;;12.27;6.20;;;;;;;12.25;75.67;98637.34;5074076;28;20028;-79
2022/11/01 08:42:24;;;;;;;10.38;6.00;;;;;;;12.27;75.33;98626.06;5055404;28;20039;-78
2022/11/01 08:44:49;;;;;;;11.73;6.50;;;;;;;12.28;75.36;98628.50;5073577;28;20031;-78
2022/11/01 08:47:15;;;;;;;10.68;7.07;;;;;;;12.30;75.42;98637.25;5073421;28;20025;-79
2022/11/01 08:49:40;;;;;;;10.38;6.50;;;;;;;12.35;75.22;98641.88;5072703;28;20032;-79
2022/11/01 08:52:05;;;;;;;11.48;7.18;;;;;;;12.36;75.38;98640.75;5055517;28;20028;-78
2022/11/01 08:54:33;;;;;;;11.65;6.85;;;;;;;12.36;75.40;98651.75;5072730;28;20021;-78
2022/11/01 08:56:59;;;;;;;10.25;6.00;;;;;;;12.33;74.59;98647.66;5073398;28;20029;-79
2022/11/01 08:59:24;;;;;;;12.45;6.63;;;;;;;12.31;74.85;98649.88;5075594;28;20032;-78
2022/11/01 09:01:50;;;;;;;12.35;6.60;;;;;;;12.29;74.76;98656.81;5093029;28;20123;-78
2022/11/01 09:04:16;;;;;;;12.70;6.85;;;;;;;12.26;74.61;98644.47;5092585;28;20043;-78
2022/11/01 09:06:41;;;;;;;10.45;6.30;;;;;;;12.28;74.87;98646.94;5092769;28;20024;-78
2022/11/01 09:09:07;;;;;;;10.50;6.18;;;;;;;12.28;74.95;98652.44;5091970;28;20032;-78
2022/11/01 09:11:32;;;;;;;11.05;6.07;;;;;;;12.27;74.71;98643.34;5092762;28;20027;-78
2022/11/01 09:13:58;;;;;;;14.85;7.20;;;;;;;12.32;75.30;98639.72;5092433;28;20310;-78
2022/11/01 09:16:23;;;;;;;14.45;7.43;;;;;;;12.31;74.64;98652.63;5077828;28;20058;-79
2022/11/01 09:18:49;;;;;;;17.48;7.85;;;;;;;12.28;74.57;98644.19;5064393;28;20116;-82
2022/11/01 09:21:15;;;;;;;12.90;6.93;;;;;;;12.31;74.74;98660.88;5075064;28;20421;-77
2022/11/01 09:23:41;;;;;;;17.58;9.82;;;;;;;12.36;74.82;98655.31;5073352;28;20016;-77
2022/11/01 09:26:09;;;;;;;16.73;7.90;;;;;;;12.39;74.72;98661.31;5062773;28;20553;-81
2022/11/01 09:28:36;;;;;;;12.32;6.60;;;;;;;12.39;74.50;98662.16;5074584;28;20035;-80
2022/11/01 09:31:03;;;;;;;11.80;7.32;;;;;;;12.38;74.79;98676.19;5084849;28;20192;-80
2022/11/01 09:33:29;;;;;;;11.15;6.32;;;;;;;12.39;74.96;98680.56;5090119;28;20036;-82
2022/11/01 09:35:55;;;;;;;12.93;7.38;;;;;;;12.39;74.50;98680.56;5089731;28;20031;-82
2022/11/01 09:38:20;;;;;;;12.35;6.78;;;;;;;12.44;74.54;98677.72;5087423;28;20469;-80
2022/11/01 09:40:55;;;;;;;11.70;6.72;;;;;;;12.46;74.18;98668.03;5090300;28;20035;-82
2022/11/01 09:43:25;;;;;;;13.20;7.68;;;;;;;12.46;74.41;98656.22;5090495;28;20039;-79
2022/11/01 09:45:52;;;;;;;12.93;7.07;;;;;;;12.50;74.52;98657.25;5085685;28;20039;-80
2022/11/01 09:48:19;;;;;;;13.35;7.18;;;;;;;12.58;74.47;98663.97;5073952;28;20670;-82
2022/11/01 09:50:45;;;;;;;13.52;7.28;;;;;;;12.66;74.60;98666.03;5078529;28;20056;-82
2022/11/01 09:53:20;;;;;;;13.82;7.43;;;;;;;12.74;74.83;98659.00;5069902;28;20028;-82
2022/11/01 09:56:08;;;;;;;13.55;7.60;;;;;;;12.77;74.50;98667.47;5077904;28;20024;-82
2022/11/01 09:58:57;;;;;;;15.93;7.80;;;;;;;12.84;74.07;98658.78;5080814;28;20032;-80
2022/11/01 10:01:25;;;;;;;10.98;7.03;;;;;;;12.83;74.29;98651.66;5071149;28;20020;-82
2022/11/01 10:04:15;;;;;;;12.88;7.68;;;;;;;12.86;73.97;98653.81;5072231;28;20043;-84
2022/11/01 10:06:58;;;;;;;15.50;9.00;;;;;;;12.86;74.08;98653.81;5064358;28;20032;-83
2022/11/01 10:09:29;;;;;;;13.20;7.63;;;;;;;12.88;74.32;98657.06;5070436;28;20632;-81
2022/11/01 10:12:03;;;;;;;12.73;7.35;;;;;;;12.91;73.99;98648.19;5067140;28;20402;-82
2022/11/01 10:14:29;;;;;;;16.52;8.80;;;;;;;12.95;73.63;98649.22;5066357;28;20028;-82
2022/11/01 10:17:05;;;;;;;13.38;7.43;;;;;;;12.94;73.58;98641.25;5067050;28;20256;-81
2022/11/01 10:19:34;;;;;;;14.60;8.48;;;;;;;12.95;73.28;98645.63;5066638;28;20026;-79
2022/11/01 10:22:06;;;;;;;12.85;7.63;;;;;;;12.92;73.77;98641.56;5065597;28;20051;-80
2022/11/01 10:24:41;;;;;;;11.82;7.68;;;;;;;12.95;73.50;98645.63;5064096;28;20494;-79
2022/11/01 10:27:17;;;;;;;10.93;7.75;;;;;;;12.95;73.57;98637.38;5069202;28;20032;-77
2022/11/01 10:30:02;;;;;;;12.90;7.43;;;;;;;12.98;73.41;98652.47;5050017;28;20063;-76
2022/11/01 10:32:41;;;;;;;13.90;7.95;;;;;;;13.00;73.01;98644.72;5065540;28;20040;-76
2022/11/01 10:35:17;;;;;;;12.43;7.50;;;;;;;13.04;73.25;98659.50;5074890;28;20028;-75
2022/11/01 10:37:52;;;;;;;13.20;7.82;;;;;;;13.02;73.21;98635.03;5088145;28;20302;-76
2022/11/01 10:40:29;;;;;;;12.73;8.25;;;;;;;13.05;73.12;98652.84;5088253;28;20032;-77
2022/11/01 10:42:54;;;;;;;14.18;7.78;;;;;;;13.07;72.82;98659.69;5083805;28;20037;-76
2022/11/01 10:45:22;;;;;;;13.15;7.88;;;;;;;13.11;72.67;98654.38;5088192;28;20070;-77
2022/11/01 10:47:53;;;;;;;14.50;7.97;;;;;;;13.10;72.48;98658.25;5069448;28;20038;-77
2022/11/01 10:50:25;;;;;;;12.73;7.53;;;;;;;13.15;72.06;98655.41;5088008;28;20032;-77
2022/11/01 10:52:57;;;;;;;10.88;7.15;;;;;;;13.18;72.51;98656.72;5088293;28;20032;-77
2022/11/01 10:55:33;;;;;;;12.18;7.30;;;;;;;13.16;72.22;98665.28;5087843;28;20028;-78
2022/11/01 10:58:12;;;;;;;14.13;7.78;;;;;;;13.16;72.18;98668.03;5071344;28;20036;-76
2022/11/01 11:00:40;;;;;;;15.20;8.13;;;;;;;13.17;71.88;98658.66;5083098;28;20073;-76
2022/11/01 11:03:28;;;;;;;13.90;8.13;;;;;;;13.17;72.17;98657.84;5077145;28;20039;-76
2022/11/01 11:05:55;;;;;;;10.25;6.60;;;;;;;13.22;71.61;98666.00;5068725;28;20390;-76
2022/11/01 11:08:22;;;;;;;14.52;6.75;;;;;;;13.21;71.82;98654.16;5054668;28;20029;-76
2022/11/01 11:10:48;;;;;;;14.45;7.65;;;;;;;13.23;71.90;98656.63;5052270;28;20443;-76
2022/11/01 11:13:19;;;;;;;13.63;7.32;;;;;;;13.25;72.04;98662.59;5076488;28;20055;-76
2022/11/01 11:15:51;;;;;;;13.55;7.90;;;;;;;13.24;71.72;98656.31;5073791;28;20028;-76
2022/11/01 11:18:26;;;;;;;13.73;7.47;;;;;;;13.23;71.89;98662.13;5075109;28;20016;-76
2022/11/01 11:20:56;;;;;;;11.45;8.10;;;;;;;13.22;71.62;98666.00;5073874;28;20025;-75
2022/11/01 11:23:22;;;;;;;15.68;7.50;;;;;;;13.22;71.32;98658.56;5072881;28;20028;-76
2022/11/01 11:25:49;;;;;;;12.98;7.65;;;;;;;13.22;71.54;98650.28;5053674;28;20036;-75
2022/11/01 11:28:41;;;;;;;10.95;7.47;;;;;;;13.29;71.78;98651.81;5071813;28;20031;-76
2022/11/01 11:31:21;;;;;;;12.15;7.22;;;;;;;13.38;71.94;98645.25;5071352;28;20052;-76
2022/11/01 11:34:13;;;;;;;10.48;6.82;;;;;;;13.48;71.59;98660.75;5068768;28;20043;-76
2022/11/01 11:36:42;;;;;;;11.68;7.90;;;;;;;13.52;71.52;98655.44;5071652;28;20489;-75